Time;durP1;ratioP1;P1;durP2;ratioP2;P2;SDS_P1;SDS_P2;PMS_P1;PMS_P2;Temp;Humidity;BMP_temperature;BMP_pressure;BME280_temperature;BME280_humidity;BME280_pressure;Samples;Min_cycle;Max_cycle;Signal;HPM_P1;HPM_P2
2021/08/06 00:01:35;;;;;;;;;;;;;;;17.30;80.48;98417.38;5134652;28;19934;-74
2021/08/06 00:04:05;;;;;;;;;;;;;;;17.26;80.42;98413.28;5134658;28;19923;-74
2021/08/06 00:06:39;;;;;;;;;;;;;;;17.27;80.14;98412.38;5134680;28;19931;-71
2021/08/06 00:09:09;;;;;;;;;;;;;;;17.26;80.25;98415.88;5134653;28;19924;-73
2021/08/06 00:11:38;;;;;;;;;;;;;;;17.23;80.09;98418.59;5116416;28;19923;-71
2021/08/06 00:14:07;;;;;;;;;;;;;;;17.22;79.97;98414.34;5134527;28;19923;-72
2021/08/06 00:16:37;;;;;;;;;;;;;;;17.18;79.66;98417.97;5138657;27;19923;-71
2021/08/06 00:19:06;;;;;;;;;;;;;;;17.12;79.82;98415.69;5138481;27;19924;-72
2021/08/06 00:21:35;;;;;;;;;;;;;;;17.15;79.63;98419.88;5139009;27;19923;-73
2021/08/06 00:24:04;;;;;;;;;;;;;;;17.09;79.43;98417.56;5138928;27;19966;-74
2021/08/06 00:26:33;;;;;;;;;;;;;;;17.01;79.37;98414.53;5138998;27;19924;-75
2021/08/06 00:29:02;;;;;;;;;;;;;;;16.96;79.13;98417.31;5138342;27;19927;-71
2021/08/06 00:31:31;;;;;;;;;;;;;;;16.89;79.01;98415.94;5138219;27;19923;-71
2021/08/06 00:34:01;;;;;;;;;;;;;;;16.88;79.13;98421.16;5119922;27;20296;-75
2021/08/06 00:36:32;;;;;;;;;;;;;;;16.89;79.20;98426.25;5120070;27;20380;-75
2021/08/06 00:39:01;;;;;;;;;;;;;;;16.85;79.18;98418.72;5138113;27;19930;-74
2021/08/06 00:41:36;;;;;;;;;;;;;;;16.72;79.32;98421.03;5119996;27;19923;-71
2021/08/06 00:44:05;;;;;;;;;;;;;;;16.72;79.43;98428.75;5119757;27;20384;-75
2021/08/06 00:46:35;;;;;;;;;;;;;;;16.73;79.69;98420.09;5138002;27;19972;-75
2021/08/06 00:49:07;;;;;;;;;;;;;;;16.71;79.55;98416.78;5120061;27;19923;-75
2021/08/06 00:51:43;;;;;;;;;;;;;;;16.71;79.33;98421.94;5119594;27;19927;-71
2021/08/06 00:54:13;;;;;;;;;;;;;;;16.73;79.21;98420.09;5138164;27;19924;-75
2021/08/06 00:56:51;;;;;;;;;;;;;;;16.67;79.38;98420.41;5137839;27;19992;-74
2021/08/06 00:59:21;;;;;;;;;;;;;;;16.67;79.27;98425.56;5119410;27;20006;-75
2021/08/06 01:01:54;;;;;;;;;;;;;;;16.65;79.41;98432.53;5137585;27;20014;-75
2021/08/06 01:04:32;;;;;;;;;;;;;;;16.61;79.58;98441.28;5119301;27;19962;-71
2021/08/06 01:07:03;;;;;;;;;;;;;;;16.56;79.56;98444.06;5137965;27;19931;-71
2021/08/06 01:09:37;;;;;;;;;;;;;;;16.58;79.63;98438.84;5137590;27;19924;-71
2021/08/06 01:12:07;;;;;;;;;;;;;;;16.54;79.56;98434.72;5137606;27;20383;-75
2021/08/06 01:14:44;;;;;;;;;;;;;;;16.54;79.62;98434.72;5119842;27;20433;-75
2021/08/06 01:17:20;;;;;;;;;;;;;;;16.51;79.88;98429.66;5119178;27;19929;-71
2021/08/06 01:19:56;;;;;;;;;;;;;;;16.44;79.96;98426.53;5119115;27;19953;-75
2021/08/06 01:22:34;;;;;;;;;;;;;;;16.48;80.00;98432.41;5119000;27;19924;-75
2021/08/06 01:25:05;;;;;;;;;;;;;;;16.50;79.76;98435.75;5137299;27;19931;-75
2021/08/06 01:27:41;;;;;;;;;;;;;;;16.50;79.49;98433.16;5136360;27;19946;-71
2021/08/06 01:30:12;;;;;;;;;;;;;;;16.51;79.71;98424.53;5119289;27;19927;-74
2021/08/06 01:32:42;;;;;;;;;;;;;;;16.48;79.66;98428.09;5101671;27;19924;-74
2021/08/06 01:35:16;;;;;;;;;;;;;;;16.36;79.50;98435.53;5118847;27;19946;-75
2021/08/06 01:37:46;;;;;;;;;;;;;;;16.31;79.33;98427.16;5119006;27;19923;-75
2021/08/06 01:40:16;;;;;;;;;;;;;;;16.32;79.42;98436.53;5118691;27;20380;-73
2021/08/06 01:42:57;;;;;;;;;;;;;;;16.31;79.60;98428.00;5118502;27;19930;-71
2021/08/06 01:45:32;;;;;;;;;;;;;;;16.27;79.53;98436.75;5118617;27;19923;-75
2021/08/06 01:48:07;;;;;;;;;;;;;;;16.20;79.26;98437.91;5101531;27;19924;-71
2021/08/06 01:50:40;;;;;;;;;;;;;;;16.21;79.45;98441.34;5118512;27;19930;-71
2021/08/06 01:53:15;;;;;;;;;;;;;;;16.22;79.70;98448.97;5118477;27;19924;-71
2021/08/06 01:55:57;;;;;;;;;;;;;;;16.23;79.54;98444.66;5136670;27;19927;-74
2021/08/06 01:58:37;;;;;;;;;;;;;;;16.22;79.52;98443.00;5101321;27;19955;-75
2021/08/06 02:01:12;;;;;;;;;;;;;;;16.20;79.62;98450.78;5118489;27;20395;-71
2021/08/06 02:03:47;;;;;;;;;;;;;;;16.18;79.54;98451.75;5117987;27;20430;-75
2021/08/06 02:06:31;;;;;;;;;;;;;;;16.14;79.22;98460.50;5136479;27;19931;-75
2021/08/06 02:09:05;;;;;;;;;;;;;;;16.14;79.08;98463.94;5118503;27;20014;-72
2021/08/06 02:11:38;;;;;;;;;;;;;;;16.13;79.08;98463.97;5118398;27;20030;-75
2021/08/06 02:14:16;;;;;;;;;;;;;;;16.10;79.03;98465.78;5118381;27;20404;-75
2021/08/06 02:16:48;;;;;;;;;;;;;;;16.12;79.03;98472.63;5136657;27;19923;-71
2021/08/06 02:19:21;;;;;;;;;;;;;;;16.14;79.10;98474.22;5118014;27;19924;-75
2021/08/06 02:21:56;;;;;;;;;;;;;;;16.15;79.04;98482.78;5117748;27;19924;-72
2021/08/06 02:24:28;;;;;;;;;;;;;;;16.13;78.86;98469.13;5117865;27;20391;-72
2021/08/06 02:26:57;;;;;;;;;;;;;;;16.09;79.09;98469.28;5118092;27;19923;-71
2021/08/06 02:29:37;;;;;;;;;;;;;;;16.19;79.36;98461.16;5117722;27;19958;-75
2021/08/06 02:32:08;;;;;;;;;;;;;;;16.25;79.11;98459.16;5117663;27;19930;-72
2021/08/06 02:34:38;;;;;;;;;;;;;;;16.24;79.03;98457.50;5117678;27;19924;-71
2021/08/06 02:37:08;;;;;;;;;;;;;;;16.24;79.07;98466.94;5117473;27;20014;-75
2021/08/06 02:39:37;;;;;;;;;;;;;;;16.25;79.05;98463.47;5135717;27;19923;-71
2021/08/06 02:42:06;;;;;;;;;;;;;;;16.27;78.96;98472.78;5135988;27;20022;-75
2021/08/06 02:44:37;;;;;;;;;;;;;;;16.28;79.02;98463.34;5135606;27;19925;-71
2021/08/06 02:47:07;;;;;;;;;;;;;;;16.24;78.88;98467.78;5136318;27;19927;-75
2021/08/06 02:49:36;;;;;;;;;;;;;;;16.21;79.31;98457.63;5117263;27;20004;-71
2021/08/06 02:52:06;;;;;;;;;;;;;;;16.20;79.62;98471.38;5117616;27;20023;-75
2021/08/06 02:54:37;;;;;;;;;;;;;;;16.19;79.63;98459.44;5100167;27;19923;-71
2021/08/06 02:57:07;;;;;;;;;;;;;;;16.18;79.51;98467.19;5135720;27;19931;-74
2021/08/06 02:59:38;;;;;;;;;;;;;;;16.18;79.68;98469.78;5117130;27;20307;-71
2021/08/06 03:02:06;;;;;;;;;;;;;;;16.19;79.80;98471.47;5135357;27;19924;-71
2021/08/06 03:04:36;;;;;;;;;;;;;;;16.18;79.43;98480.06;5135073;27;20389;-71
2021/08/06 03:07:13;;;;;;;;;;;;;;;16.19;79.97;98479.19;5116683;27;20462;-75
2021/08/06 03:09:42;;;;;;;;;;;;;;;16.17;79.85;98483.56;5135666;27;19930;-71
2021/08/06 03:12:11;;;;;;;;;;;;;;;16.23;79.95;98470.41;5135259;27;19924;-71
2021/08/06 03:14:42;;;;;;;;;;;;;;;16.23;79.89;98470.41;5117139;27;19931;-75
2021/08/06 03:17:13;;;;;;;;;;;;;;;16.15;80.01;98482.78;5117347;27;19923;-75
2021/08/06 03:19:45;;;;;;;;;;;;;;;16.17;80.11;98483.56;5117336;27;20354;-75
2021/08/06 03:22:14;;;;;;;;;;;;;;;16.19;80.03;98474.03;5117030;28;19953;-75
2021/08/06 03:24:43;;;;;;;;;;;;;;;16.17;79.95;98475.84;5116668;27;19958;-75
2021/08/06 03:27:14;;;;;;;;;;;;;;;16.01;79.85;98479.06;5116824;28;19930;-71
2021/08/06 03:29:45;;;;;;;;;;;;;;;15.93;79.83;98488.81;5117327;28;19969;-70
2021/08/06 03:32:14;;;;;;;;;;;;;;;16.04;80.17;98493.53;5135078;28;19928;-71
2021/08/06 03:34:43;;;;;;;;;;;;;;;15.99;79.96;98493.72;5116661;28;19924;-75
2021/08/06 03:37:12;;;;;;;;;;;;;;;15.66;79.96;98494.25;5134892;28;19930;-75
2021/08/06 03:39:42;;;;;;;;;;;;;;;15.48;80.84;98495.81;5116772;28;20292;-75
2021/08/06 03:42:11;;;;;;;;;;;;;;;15.54;81.55;98494.75;5099752;28;20292;-71
2021/08/06 03:44:40;;;;;;;;;;;;;;;15.58;81.61;98496.28;5116597;28;20334;-72
2021/08/06 03:47:10;;;;;;;;;;;;;;;15.55;81.74;98497.25;5116576;28;20029;-71
2021/08/06 03:49:40;;;;;;;;;;;;;;;15.66;81.91;98495.09;5116890;27;19931;-71
2021/08/06 03:52:09;;;;;;;;;;;;;;;15.67;82.31;98499.34;5120838;27;19924;-75
2021/08/06 03:54:39;;;;;;;;;;;;;;;15.53;82.17;98504.19;5121004;27;19930;-74
2021/08/06 03:57:09;;;;;;;;;;;;;;;15.41;82.04;98504.63;5139872;27;19931;-72
2021/08/06 03:59:39;;;;;;;;;;;;;;;15.53;82.71;98517.06;5120679;27;19923;-75
2021/08/06 04:02:10;;;;;;;;;;;;;;;15.66;82.69;98514.84;5138755;27;20289;-71
2021/08/06 04:04:39;;;;;;;;;;;;;;;15.61;82.85;98521.91;5138619;27;19977;-72
2021/08/06 04:07:08;;;;;;;;;;;;;;;15.52;82.58;98520.53;5120432;27;19927;-71
2021/08/06 04:09:37;;;;;;;;;;;;;;;15.60;83.64;98518.47;5120379;27;19934;-75
2021/08/06 04:12:06;;;;;;;;;;;;;;;15.61;83.09;98512.47;5138632;27;19955;-71
2021/08/06 04:14:35;;;;;;;;;;;;;;;15.58;83.00;98517.72;5120602;27;19976;-72
2021/08/06 04:17:04;;;;;;;;;;;;;;;15.50;83.39;98519.75;5120358;27;19930;-71
2021/08/06 04:19:35;;;;;;;;;;;;;;;15.53;83.41;98529.06;5138846;27;19992;-75
2021/08/06 04:22:04;;;;;;;;;;;;;;;15.30;83.56;98528.22;5138439;27;19968;-74
2021/08/06 04:24:32;;;;;;;;;;;;;;;15.24;83.96;98527.59;5103281;27;19982;-71
2021/08/06 04:27:01;;;;;;;;;;;;;;;15.27;83.69;98522.34;5138266;27;19928;-71
2021/08/06 04:29:30;;;;;;;;;;;;;;;15.44;83.83;98519.97;5138257;27;20422;-71
2021/08/06 04:31:59;;;;;;;;;;;;;;;15.65;83.74;98524.28;5138605;27;19924;-74
2021/08/06 04:34:27;;;;;;;;;;;;;;;15.75;83.23;98525.59;5119911;27;19923;-75
2021/08/06 04:36:58;;;;;;;;;;;;;;;15.82;82.65;98516.72;5120041;27;19938;-75
2021/08/06 04:39:27;;;;;;;;;;;;;;;15.93;82.64;98517.13;5138214;27;19923;-71
2021/08/06 04:41:55;;;;;;;;;;;;;;;16.01;82.43;98520.22;5119810;27;19992;-75
2021/08/06 04:44:25;;;;;;;;;;;;;;;16.12;81.91;98531.81;5119618;27;20297;-74
2021/08/06 04:46:53;;;;;;;;;;;;;;;16.13;81.30;98533.47;5138169;27;20014;-71
2021/08/06 04:49:23;;;;;;;;;;;;;;;16.22;81.35;98535.69;5119997;27;19929;-72
2021/08/06 04:51:52;;;;;;;;;;;;;;;16.22;80.91;98539.09;5137426;27;19949;-74
2021/08/06 04:54:22;;;;;;;;;;;;;;;16.28;80.59;98536.28;5138512;27;20342;-75
2021/08/06 04:56:51;;;;;;;;;;;;;;;16.30;80.34;98538.78;5138000;27;19927;-74
2021/08/06 04:59:20;;;;;;;;;;;;;;;16.38;80.47;98536.72;5119484;27;20412;-75
2021/08/06 05:01:49;;;;;;;;;;;;;;;16.47;80.36;98536.31;5136386;27;20292;-75
2021/08/06 05:04:17;;;;;;;;;;;;;;;16.56;80.09;98528.22;5137607;27;19923;-75
2021/08/06 05:06:47;;;;;;;;;;;;;;;16.59;79.66;98535.81;5119298;27;20425;-72
2021/08/06 05:09:15;;;;;;;;;;;;;;;16.62;79.60;98535.69;5119609;27;20334;-72
2021/08/06 05:11:46;;;;;;;;;;;;;;;16.56;79.24;98535.94;5119304;27;19930;-72
2021/08/06 05:14:15;;;;;;;;;;;;;;;16.58;79.42;98539.31;5137841;27;19930;-71
2021/08/06 05:16:44;;;;;;;;;;;;;;;16.61;79.35;98552.91;5119614;27;19924;-71
2021/08/06 05:19:14;;;;;;;;;;;;;;;16.58;79.44;98547.88;5137764;27;20429;-71
2021/08/06 05:21:43;;;;;;;;;;;;;;;16.57;79.23;98553.09;5118988;27;19923;-71
2021/08/06 05:24:12;;;;;;;;;;;;;;;16.61;79.35;98562.34;5137575;27;19931;-71
2021/08/06 05:26:41;;;;;;;;;;;;;;;16.65;79.08;98562.16;5137206;27;20018;-71
2021/08/06 05:29:11;;;;;;;;;;;;;;;16.66;79.33;98573.31;5119238;27;19924;-73
2021/08/06 05:31:42;;;;;;;;;;;;;;;16.64;79.16;98575.13;5137825;27;19931;-74
2021/08/06 05:34:11;;;;;;;;;;;;;;;16.62;78.86;98571.78;5118758;27;19930;-71
2021/08/06 05:36:41;;;;;;;;;;;;;;;16.59;78.85;98567.59;5118804;27;19972;-75
2021/08/06 05:39:10;;;;;;;;;;;;;;;16.54;78.84;98571.25;5136975;27;20019;-71
2021/08/06 05:41:39;;;;;;;;;;;;;;;16.50;78.79;98575.69;5119009;27;19935;-74
2021/08/06 05:44:14;;;;;;;;;;;;;;;16.64;78.58;98572.53;5118604;27;19924;-72
2021/08/06 05:46:43;;;;;;;;;;;;;;;16.80;78.51;98570.97;5136907;27;20338;-73
2021/08/06 05:49:13;;;;;;;;;;;;;;;17.19;78.28;98564.06;5118703;27;19924;-71
2021/08/06 05:51:42;;;;;;;;;;;;;;;17.44;77.82;98572.31;5136713;27;20006;-71
2021/08/06 05:54:12;;;;;;;;;;;;;;;17.74;76.89;98571.84;5136992;27;19969;-74
2021/08/06 05:56:43;;;;;;;;;;;;;;;18.02;76.24;98574.75;5118364;27;19924;-74
2021/08/06 05:59:14;;;;;;;;;;;;;;;18.23;75.12;98573.75;5118289;27;19930;-71
2021/08/06 06:01:43;;;;;;;;;;;;;;;18.34;74.29;98584.38;5136555;27;20018;-75
2021/08/06 06:04:38;;;;;;;;;;;;;;;18.53;74.10;98586.88;5113876;27;19923;-74
2021/08/06 06:07:14;;;;;;;;;;;;;;;18.62;73.27;98592.44;5118222;27;19924;-71
2021/08/06 06:09:43;;;;;;;;;;;;;;;18.57;73.27;98591.00;5136378;27;20014;-71
2021/08/06 06:12:12;;;;;;;;;;;;;;;18.43;73.21;98583.91;5117972;27;19923;-73
2021/08/06 06:14:42;;;;;;;;;;;;;;;18.33;73.15;98592.22;5136344;27;19924;-71
2021/08/06 06:17:12;;;;;;;;;;;;;;;18.21;72.96;98600.56;5118213;27;19961;-72
2021/08/06 06:19:44;;;;;;;;;;;;;;;18.23;73.10;98602.16;5136184;27;19930;-74
2021/08/06 06:22:14;;;;;;;;;;;;;;;18.42;72.87;98597.75;5133387;27;19946;-72
2021/08/06 06:24:43;;;;;;;;;;;;;;;18.46;72.78;98598.44;5135503;27;19923;-71
2021/08/06 06:27:13;;;;;;;;;;;;;;;18.57;72.15;98602.16;5135772;27;19924;-72
2021/08/06 06:29:43;;;;;;;;;;;;;;;18.72;71.90;98606.56;5117498;27;19930;-72
2021/08/06 06:32:12;;;;;;;;;;;;;;;18.93;71.06;98598.63;5135643;27;19930;-73
2021/08/06 06:34:42;;;;;;;;;;;;;;;19.11;70.47;98613.19;5117749;27;19923;-73
2021/08/06 06:37:10;;;;;;;;;;;;;;;19.32;69.86;98612.06;5135651;27;19930;-74
2021/08/06 06:39:42;;;;;;;;;;;;;;;19.56;69.02;98608.19;5117514;27;19923;-72
2021/08/06 06:42:11;;;;;;;;;;;;;;;19.72;68.63;98601.28;5117347;27;20412;-72
2021/08/06 06:44:40;;;;;;;;;;;;;;;19.89;68.15;98603.72;5117254;27;20027;-72
2021/08/06 06:47:11;;;;;;;;;;;;;;;20.01;67.36;98610.81;5117185;27;19928;-75
2021/08/06 06:49:40;;;;;;;;;;;;;;;20.07;66.47;98614.84;5100294;27;19924;-71
2021/08/06 06:52:09;;;;;;;;;;;;;;;20.11;66.33;98613.72;5135229;27;19927;-72
2021/08/06 06:54:38;;;;;;;;;;;;;;;20.20;66.57;98617.56;5135440;27;19923;-71
2021/08/06 06:57:07;;;;;;;;;;;;;;;20.33;66.10;98628.94;5135423;27;19923;-71
2021/08/06 06:59:36;;;;;;;;;;;;;;;20.33;65.68;98631.53;5117083;27;20429;-74
2021/08/06 07:02:06;;;;;;;;;;;;;;;20.51;65.34;98630.50;5116907;27;20292;-72
2021/08/06 07:04:36;;;;;;;;;;;;;;;20.60;64.92;98629.94;5116625;27;19930;-71
2021/08/06 07:07:06;;;;;;;;;;;;;;;20.52;64.68;98638.16;5135188;27;20338;-71
2021/08/06 07:09:35;;;;;;;;;;;;;;;20.47;64.74;98636.75;5135444;27;19930;-71
2021/08/06 07:12:04;;;;;;;;;;;;;;;20.30;64.43;98636.91;5135209;27;20304;-71
2021/08/06 07:14:33;;;;;;;;;;;;;;;20.06;64.42;98632.13;5135205;27;20426;-73
2021/08/06 07:17:02;;;;;;;;;;;;;;;20.17;64.88;98638.47;5116729;27;19937;-72
2021/08/06 07:19:31;;;;;;;;;;;;;;;20.42;64.47;98638.81;5116684;27;19924;-72
2021/08/06 07:22:01;;;;;;;;;;;;;;;20.58;64.38;98639.56;5116266;28;19927;-71
2021/08/06 07:24:30;;;;;;;;;;;;;;;20.73;63.71;98643.88;5116019;28;19931;-72
2021/08/06 07:26:59;;;;;;;;;;;;;;;20.69;63.27;98644.97;5116626;27;19931;-75
2021/08/06 07:29:29;;;;;;;;;;;;;;;20.55;63.19;98637.16;5116682;28;19924;-74
2021/08/06 07:31:57;;;;;;;;;;;;;;;20.65;63.54;98635.72;5135023;28;19962;-75
2021/08/06 07:34:26;;;;;;;;;;;;;;;20.93;63.52;98646.13;5116611;28;20006;-71
2021/08/06 07:36:55;;;;;;;;;;;;;;;21.05;63.48;98637.66;5116661;28;19969;-73
2021/08/06 07:39:25;;;;;;;;;;;;;;;21.11;63.15;98634.69;5116656;28;19962;-72
2021/08/06 07:41:54;;;;;;;;;;;;;;;21.23;63.08;98644.34;5116663;28;19923;-71
2021/08/06 07:44:23;;;;;;;;;;;;;;;21.48;62.45;98643.66;5134741;28;19923;-72
2021/08/06 07:46:52;;;;;;;;;;;;;;;21.47;62.03;98652.41;5116588;28;20013;-73
2021/08/06 08:45:40;;;;;;;;;;;;;;;23.16;56.60;98650.88;5153626;27;19924;-66
2021/08/06 08:48:12;;;;;;;;;;;;;;;23.15;54.44;98655.28;5151630;27;20381;-67
2021/08/06 08:50:42;;;;;;;;;;;;;;;23.18;53.77;98659.41;5151637;27;19976;-67
2021/08/06 08:53:12;;;;;;;;;;;;;;;23.29;55.15;98662.13;5152667;27;19962;-67
2021/08/06 08:55:41;;;;;;;;;;;;;;;23.33;55.14;98663.59;5152709;27;20354;-67
2021/08/06 08:58:13;;;;;;;;;;;;;;;23.47;54.86;98658.28;5151543;27;19929;-68
2021/08/06 09:00:45;;;;;;;;;;;;;;;23.51;53.65;98651.94;5152561;27;19923;-67
2021/08/06 09:03:28;;;;;;;;;;;;;;;23.76;54.07;98657.09;5152542;27;20329;-67
2021/08/06 09:05:58;;;;;;;;;;;;;;;23.88;54.43;98664.03;5152431;27;19928;-69
2021/08/06 09:08:27;;;;;;;;;;;;;;;23.53;53.32;98665.69;5152260;27;20366;-67
2021/08/06 09:11:24;;;;;;;;;;;;;;;23.13;53.79;98661.53;5152529;27;19930;-68
2021/08/06 09:14:19;;;;;;;;;;;;;;;22.79;55.53;98664.72;5151734;27;20305;-66
2021/08/06 09:16:56;;;;;;;;;;;;;;;22.89;55.50;98663.19;5150734;27;19923;-67
2021/08/06 09:19:25;;;;;;;;;;;;;;;22.93;56.09;98669.84;5152276;27;19934;-66
2021/08/06 09:22:07;;;;;;;;;;;;;;;22.76;55.69;98670.13;5152489;27;19945;-67
2021/08/06 09:24:45;;;;;;;;;;;;;;;22.54;54.62;98674.13;5152067;27;19923;-67
2021/08/06 09:27:17;;;;;;;;;;;;;;;22.77;55.47;98679.63;5152102;27;19930;-66
2021/08/06 09:29:46;;;;;;;;;;;;;;;23.12;55.68;98671.09;5151927;27;20006;-67
2021/08/06 09:32:16;;;;;;;;;;;;;;;23.40;55.08;98675.28;5152258;27;19927;-67
2021/08/06 09:34:45;;;;;;;;;;;;;;;23.62;54.69;98675.47;5151821;27;20391;-67
2021/08/06 09:37:15;;;;;;;;;;;;;;;23.81;53.92;98675.00;5151844;27;19930;-67
2021/08/06 09:39:47;;;;;;;;;;;;;;;23.89;52.29;98676.13;5151906;27;19927;-67
2021/08/06 09:42:17;;;;;;;;;;;;;;;23.97;53.74;98680.81;5151746;27;19923;-67
2021/08/06 09:44:46;;;;;;;;;;;;;;;24.14;53.00;98682.25;5147669;27;20457;-66
2021/08/06 09:47:21;;;;;;;;;;;;;;;24.11;53.41;98685.06;5137770;27;20010;-67
2021/08/06 09:49:51;;;;;;;;;;;;;;;24.31;53.17;98680.06;5138171;27;20267;-66
2021/08/06 09:52:27;;;;;;;;;;;;;;;24.34;52.78;98676.41;5137707;27;20421;-67
2021/08/06 09:55:19;;;;;;;;;;;;;;;24.36;52.17;98688.41;5137587;27;20274;-66
2021/08/06 09:57:48;;;;;;;;;;;;;;;24.47;51.01;98691.06;5137672;27;19976;-67
2021/08/06 10:00:18;;;;;;;;;;;;;;;24.58;52.38;98690.28;5137571;27;19923;-67
2021/08/06 10:02:51;;;;;;;;;;;;;;;24.71;52.85;98692.81;5137602;27;19968;-67
2021/08/06 10:05:21;;;;;;;;;;;;;;;24.86;52.14;98684.69;5137441;27;19928;-68
2021/08/06 10:07:51;;;;;;;;;;;;;;;24.74;53.14;98688.19;5137396;27;20299;-67
2021/08/06 10:10:21;;;;;;;;;;;;;;;24.76;51.68;98681.09;5136603;27;20297;-67
2021/08/06 10:12:50;;;;;;;;;;;;;;;24.89;51.68;98687.06;5137684;27;20003;-67
2021/08/06 10:15:20;;;;;;;;;;;;;;;24.95;51.42;98691.84;5137372;27;20453;-67
2021/08/06 10:17:51;;;;;;;;;;;;;;;24.94;51.62;98684.97;5137397;27;19957;-68
2021/08/06 10:20:22;;;;;;;;;;;;;;;25.11;51.47;98687.13;5137240;27;19924;-68
2021/08/06 10:22:50;;;;;;;;;;;;;;;25.23;50.77;98691.44;5137269;27;19924;-67
2021/08/06 10:25:20;;;;;;;;;;;;;;;25.31;50.26;98683.81;5137136;27;19976;-68
2021/08/06 10:27:50;;;;;;;;;;;;;;;25.31;49.86;98683.81;5137119;27;20270;-67
2021/08/06 10:30:23;;;;;;;;;;;;;;;25.31;51.58;98678.59;5136446;27;19923;-67
2021/08/06 10:33:05;;;;;;;;;;;;;;;25.08;51.57;98683.91;5136860;27;19935;-67
2021/08/06 10:35:43;;;;;;;;;;;;;;;24.86;51.09;98682.06;5136751;27;20378;-67
2021/08/06 10:38:13;;;;;;;;;;;;;;;24.54;51.86;98687.06;5136500;27;19930;-66
2021/08/06 10:41:08;;;;;;;;;;;;;;;24.18;51.82;98688.91;5136661;27;19967;-66
2021/08/06 10:43:45;;;;;;;;;;;;;;;23.74;52.15;98689.41;5136436;27;20003;-68
2021/08/06 10:46:17;;;;;;;;;;;;;;;23.55;53.23;98683.81;5136717;27;19927;-68
2021/08/06 10:48:46;;;;;;;;;;;;;;;23.43;54.19;98695.06;5136801;27;19931;-67
2021/08/06 10:51:21;;;;;;;;;;;;;;;23.34;54.62;98693.91;5136510;27;19927;-67
2021/08/06 10:54:10;;;;;;;;;;;;;;;23.09;55.25;98693.91;5136625;27;20433;-67
2021/08/06 10:56:39;;;;;;;;;;;;;;;23.06;55.51;98696.72;5135251;27;20015;-67
2021/08/06 10:59:12;;;;;;;;;;;;;;;23.09;54.74;98691.28;5136508;27;19932;-68
2021/08/06 11:01:42;;;;;;;;;;;;;;;23.07;55.28;98690.56;5137015;27;20429;-67
2021/08/06 11:04:23;;;;;;;;;;;;;;;23.24;55.17;98692.88;5135980;27;19930;-67
2021/08/06 11:06:54;;;;;;;;;;;;;;;23.50;54.40;98685.91;5115577;28;19995;-67
2021/08/06 11:09:40;;;;;;;;;;;;;;;23.59;54.57;98690.47;5115843;28;19923;-66
2021/08/06 11:12:10;;;;;;;;;;;;;;;23.47;54.87;98686.94;5115680;28;19976;-67
2021/08/06 11:14:57;;;;;;;;;;;;;;;23.33;54.96;98689.63;5115452;28;19924;-66
2021/08/06 11:17:34;;;;;;;;;;;;;;;23.29;54.18;98681.22;5115574;28;20022;-66
2021/08/06 11:20:10;;;;;;;;;;;;;;;23.38;53.30;98686.75;5116535;28;20321;-67
2021/08/06 11:22:42;;;;;;;;;;;;;;;23.84;53.56;98680.00;5115429;28;20371;-66
2021/08/06 11:25:17;;;;;;;;;;;;;;;24.01;54.50;98679.66;5115468;28;19930;-66
2021/08/06 11:27:52;;;;;;;;;;;;;;;24.23;52.96;98684.19;5115373;28;19923;-67
2021/08/06 11:30:24;;;;;;;;;;;;;;;24.47;53.12;98679.78;5114247;28;19930;-67
2021/08/06 11:32:54;;;;;;;;;;;;;;;24.46;53.70;98688.56;5115327;28;20305;-67
2021/08/06 11:35:25;;;;;;;;;;;;;;;24.28;53.22;98679.47;5115260;28;19923;-67
2021/08/06 11:37:56;;;;;;;;;;;;;;;24.50;53.29;98680.38;5115358;28;19949;-66
2021/08/06 11:40:25;;;;;;;;;;;;;;;24.88;52.25;98680.22;5115010;28;19924;-67
2021/08/06 11:42:54;;;;;;;;;;;;;;;25.16;52.05;98679.78;5115006;28;19924;-64
2021/08/06 11:45:25;;;;;;;;;;;;;;;25.28;50.41;98676.22;5114950;28;20438;-67
2021/08/06 11:47:54;;;;;;;;;;;;;;;25.14;48.71;98680.84;5113951;28;19923;-66
2021/08/06 11:50:36;;;;;;;;;;;;;;;25.24;49.12;98677.41;5115358;28;19931;-67
2021/08/06 11:53:11;;;;;;;;;;;;;;;25.41;49.69;98683.13;5114865;28;20351;-66
2021/08/06 11:55:39;;;;;;;;;;;;;;;25.61;50.51;98679.81;5114778;28;20007;-66
2021/08/06 11:58:08;;;;;;;;;;;;;;;25.63;49.03;98672.69;5114706;28;19931;-66
2021/08/06 12:00:38;;;;;;;;;;;;;;;25.51;48.94;98663.19;5114695;28;20006;-66
2021/08/06 12:03:08;;;;;;;;;;;;;;;25.64;49.85;98661.28;5114560;28;19930;-69
2021/08/06 12:05:38;;;;;;;;;;;;;;;25.69;49.87;98657.38;5114766;28;19924;-67
2021/08/06 12:08:15;;;;;;;;;;;;;;;25.68;49.24;98655.69;5114444;28;19959;-67
2021/08/06 12:10:44;;;;;;;;;;;;;;;25.92;50.60;98664.22;5114727;28;19923;-66
2021/08/06 12:13:13;;;;;;;;;;;;;;;26.02;49.61;98656.47;5114494;28;19927;-66
2021/08/06 12:15:42;;;;;;;;;;;;;;;26.10;49.25;98654.09;5114525;28;19930;-65
2021/08/06 12:18:14;;;;;;;;;;;;;;;26.22;49.10;98655.75;5114326;28;19958;-66
2021/08/06 12:20:44;;;;;;;;;;;;;;;25.95;48.46;98650.06;5115036;28;20022;-67
2021/08/06 12:23:16;;;;;;;;;;;;;;;26.00;48.21;98657.53;5114391;28;19923;-68
2021/08/06 12:25:59;;;;;;;;;;;;;;;25.99;47.75;98654.09;5114742;28;20029;-66
2021/08/06 12:28:27;;;;;;;;;;;;;;;25.66;47.64;98656.75;5114486;28;20086;-69
2021/08/06 12:31:07;;;;;;;;;;;;;;;25.74;48.84;98657.00;5114275;28;19927;-67
2021/08/06 12:33:36;;;;;;;;;;;;;;;25.90;46.96;98660.06;5114820;28;19924;-67
2021/08/06 12:36:08;;;;;;;;;;;;;;;26.09;46.88;98665.47;5114188;28;19924;-68
2021/08/06 12:38:39;;;;;;;;;;;;;;;26.25;47.39;98655.47;5114344;28;19924;-67
2021/08/06 12:41:08;;;;;;;;;;;;;;;26.39;47.37;98652.59;5114276;28;19982;-65
2021/08/06 12:43:36;;;;;;;;;;;;;;;26.62;48.19;98645.44;5113979;28;19977;-67
2021/08/06 12:46:19;;;;;;;;;;;;;;;26.47;47.19;98655.38;5114229;28;19924;-68
2021/08/06 12:49:00;;;;;;;;;;;;;;;26.25;46.79;98652.84;5114202;28;19930;-68
2021/08/06 12:51:29;;;;;;;;;;;;;;;26.34;46.45;98653.91;5114277;28;19981;-67
2021/08/06 12:53:59;;;;;;;;;;;;;;;26.48;47.00;98651.81;5114212;28;19934;-66
2021/08/06 12:56:28;;;;;;;;;;;;;;;26.08;47.80;98648.16;5114119;28;19923;-66
2021/08/06 12:59:07;;;;;;;;;;;;;;;26.01;47.48;98651.38;5114171;28;19923;-67
2021/08/06 13:01:37;;;;;;;;;;;;;;;26.12;46.85;98649.59;5114048;28;20019;-69
2021/08/06 13:04:08;;;;;;;;;;;;;;;25.77;46.93;98643.69;5114036;28;19928;-67
2021/08/06 13:29:39;;;;;;;;;;;;;;;26.07;45.42;98643.84;5153628;27;19916;-76
2021/08/06 13:32:09;;;;;;;;;;;;;;;26.06;45.32;98644.78;5152831;27;19927;-77
2021/08/06 13:34:37;;;;;;;;;;;;;;;25.93;44.33;98654.59;5151801;27;19935;-77
2021/08/06 13:37:07;;;;;;;;;;;;;;;26.13;45.59;98648.59;5151451;27;19931;-77
2021/08/06 13:39:37;;;;;;;;;;;;;;;26.13;44.85;98646.00;5152966;27;19927;-76
2021/08/06 13:42:06;;;;;;;;;;;;;;;25.67;45.47;98642.75;5152723;27;20393;-76
2021/08/06 13:44:34;;;;;;;;;;;;;;;25.53;46.11;98650.84;5152767;27;20419;-77
2021/08/06 13:47:06;;;;;;;;;;;;;;;25.63;46.16;98651.78;5151537;27;20026;-77
2021/08/06 13:49:35;;;;;;;;;;;;;;;25.85;46.05;98646.53;5151403;27;20446;-76
2021/08/06 13:52:04;;;;;;;;;;;;;;;26.01;45.51;98654.78;5152595;27;19968;-76
2021/08/06 13:54:33;;;;;;;;;;;;;;;26.18;46.01;98656.91;5152344;27;19923;-76
2021/08/06 13:57:01;;;;;;;;;;;;;;;26.09;45.26;98655.03;5152187;27;19923;-76
2021/08/06 13:59:31;;;;;;;;;;;;;;;25.65;45.65;98655.13;5152280;27;20305;-76
2021/08/06 14:01:59;;;;;;;;;;;;;;;25.46;45.60;98660.13;5152560;27;19923;-75
2021/08/06 14:04:30;;;;;;;;;;;;;;;25.55;46.14;98662.00;5152418;27;19924;-76
2021/08/06 14:07:01;;;;;;;;;;;;;;;25.56;47.61;98666.28;5133767;27;20323;-76
2021/08/06 14:09:30;;;;;;;;;;;;;;;25.45;48.61;98668.91;5152161;27;19930;-76
2021/08/06 14:11:59;;;;;;;;;;;;;;;25.29;48.04;98667.44;5152408;27;19931;-76
2021/08/06 14:14:28;;;;;;;;;;;;;;;25.12;47.99;98673.09;5150988;27;20323;-76
2021/08/06 14:16:57;;;;;;;;;;;;;;;25.01;47.96;98670.50;5152018;27;20401;-75
2021/08/06 14:19:26;;;;;;;;;;;;;;;25.00;49.45;98668.00;5152200;27;19923;-76
2021/08/06 14:21:56;;;;;;;;;;;;;;;24.96;49.77;98671.78;5151802;27;19923;-75
2021/08/06 14:24:24;;;;;;;;;;;;;;;24.92;50.28;98675.56;5152086;27;19979;-77
2021/08/06 14:26:53;;;;;;;;;;;;;;;24.69;48.99;98672.03;5151698;27;19928;-76
2021/08/06 14:29:22;;;;;;;;;;;;;;;24.51;48.84;98676.00;5145128;27;19930;-76